Hilton, New York
Current Conditions -  °F | °C
As of 12:54 PM on Monday 24 Nov 2014 (Local Time) from KROC Reporting Station
Broken Clouds Broken Clouds  
Wind Chill: 68°   Ceiling: 11000
Heat Index: 68°   Visibility: 10mi
Dew Point: 49°   Wind: 16mph
Humidity: 50%   Direction: 200°SSW
Pressure: 29.27"   Gusts: 35mph
Location:  43.29°N, 77.8°W
Report Text: KROC 241754Z 20014G30KT 10SM FEW050 SCT070 BKN110 20/09 A2927 RMK AO2 PK WND 21030/1754 SLP914 T02000094 10211 20150 58022
Loading
Personal Weather Stations






























Interactive Weather Map New forecast layout! Learn more

10-Day Weather Forecast

Advertisements
Track Severe Weather on mobile